sensor_id;sensor_type;location;lat;lon;timestamp;temperature;humidity
23560;DHT22;11958;50.836;4.438;2023-12-20T00:00:55;6.50;98.10
23560;DHT22;11958;50.836;4.438;2023-12-20T00:03:21;6.50;98.50
23560;DHT22;11958;50.836;4.438;2023-12-20T00:05:47;6.40;97.90
23560;DHT22;11958;50.836;4.438;2023-12-20T00:08:13;6.40;98.00
23560;DHT22;11958;50.836;4.438;2023-12-20T00:10:39;6.60;97.70
23560;DHT22;11958;50.836;4.438;2023-12-20T00:13:04;6.30;98.00
23560;DHT22;11958;50.836;4.438;2023-12-20T00:15:30;6.30;98.10
23560;DHT22;11958;50.836;4.438;2023-12-20T00:17:56;6.50;98.20
23560;DHT22;11958;50.836;4.438;2023-12-20T00:20:21;6.40;97.70
23560;DHT22;11958;50.836;4.438;2023-12-20T00:22:47;6.40;97.90
23560;DHT22;11958;50.836;4.438;2023-12-20T00:25:13;6.50;98.00
23560;DHT22;11958;50.836;4.438;2023-12-20T00:27:38;6.50;97.90
23560;DHT22;11958;50.836;4.438;2023-12-20T00:30:04;6.30;97.70
23560;DHT22;11958;50.836;4.438;2023-12-20T00:32:30;6.20;98.10
23560;DHT22;11958;50.836;4.438;2023-12-20T00:34:56;6.20;97.80
23560;DHT22;11958;50.836;4.438;2023-12-20T00:37:21;6.20;98.40
23560;DHT22;11958;50.836;4.438;2023-12-20T00:39:47;6.20;98.20
23560;DHT22;11958;50.836;4.438;2023-12-20T00:42:13;5.90;98.30
23560;DHT22;11958;50.836;4.438;2023-12-20T00:44:39;6.10;98.40
23560;DHT22;11958;50.836;4.438;2023-12-20T00:47:04;6.10;98.50
23560;DHT22;11958;50.836;4.438;2023-12-20T00:49:30;5.90;98.20
23560;DHT22;11958;50.836;4.438;2023-12-20T00:51:58;6.10;98.40
23560;DHT22;11958;50.836;4.438;2023-12-20T00:54:24;5.90;98.70
23560;DHT22;11958;50.836;4.438;2023-12-20T00:56:49;6.00;98.40
23560;DHT22;11958;50.836;4.438;2023-12-20T00:59:16;5.90;98.40
23560;DHT22;11958;50.836;4.438;2023-12-20T01:01:45;6.10;98.40
23560;DHT22;11958;50.836;4.438;2023-12-20T01:04:11;6.00;98.20
23560;DHT22;11958;50.836;4.438;2023-12-20T01:06:36;5.80;98.00
23560;DHT22;11958;50.836;4.438;2023-12-20T01:09:02;6.10;98.00
23560;DHT22;11958;50.836;4.438;2023-12-20T01:11:28;5.80;97.90
23560;DHT22;11958;50.836;4.438;2023-12-20T01:13:54;5.80;98.10
23560;DHT22;11958;50.836;4.438;2023-12-20T01:16:19;6.00;98.20
23560;DHT22;11958;50.836;4.438;2023-12-20T01:18:45;5.90;98.20
23560;DHT22;11958;50.836;4.438;2023-12-20T01:21:10;6.00;98.60
23560;DHT22;11958;50.836;4.438;2023-12-20T01:23:36;5.80;98.70
23560;DHT22;11958;50.836;4.438;2023-12-20T01:26:02;5.70;99.10
23560;DHT22;11958;50.836;4.438;2023-12-20T01:28:29;5.80;99.00
23560;DHT22;11958;50.836;4.438;2023-12-20T01:30:55;5.80;98.70
23560;DHT22;11958;50.836;4.438;2023-12-20T01:33:23;5.80;99.20
23560;DHT22;11958;50.836;4.438;2023-12-20T01:35:48;5.80;99.10
23560;DHT22;11958;50.836;4.438;2023-12-20T01:38:14;5.70;99.50
23560;DHT22;11958;50.836;4.438;2023-12-20T01:40:40;5.60;99.10
23560;DHT22;11958;50.836;4.438;2023-12-20T01:43:08;5.80;99.00
23560;DHT22;11958;50.836;4.438;2023-12-20T01:45:34;5.80;99.20
23560;DHT22;11958;50.836;4.438;2023-12-20T01:48:00;5.80;99.30
23560;DHT22;11958;50.836;4.438;2023-12-20T01:50:28;5.90;98.80
23560;DHT22;11958;50.836;4.438;2023-12-20T01:52:55;5.90;98.70
23560;DHT22;11958;50.836;4.438;2023-12-20T01:55:24;5.80;98.90
23560;DHT22;11958;50.836;4.438;2023-12-20T01:57:50;5.80;98.70
23560;DHT22;11958;50.836;4.438;2023-12-20T02:00:16;6.00;98.90
23560;DHT22;11958;50.836;4.438;2023-12-20T02:02:45;5.90;98.60
23560;DHT22;11958;50.836;4.438;2023-12-20T02:05:11;5.80;99.10
23560;DHT22;11958;50.836;4.438;2023-12-20T02:07:37;5.70;99.00
23560;DHT22;11958;50.836;4.438;2023-12-20T02:10:03;5.80;99.30
23560;DHT22;11958;50.836;4.438;2023-12-20T02:12:33;5.80;98.90
23560;DHT22;11958;50.836;4.438;2023-12-20T02:14:58;5.80;98.70
23560;DHT22;11958;50.836;4.438;2023-12-20T02:17:25;5.80;98.50
23560;DHT22;11958;50.836;4.438;2023-12-20T02:19:51;5.80;98.80
23560;DHT22;11958;50.836;4.438;2023-12-20T02:22:17;5.60;98.90
23560;DHT22;11958;50.836;4.438;2023-12-20T02:24:42;5.60;99.00
23560;DHT22;11958;50.836;4.438;2023-12-20T02:27:08;5.70;98.60
23560;DHT22;11958;50.836;4.438;2023-12-20T02:29:35;5.70;98.60
23560;DHT22;11958;50.836;4.438;2023-12-20T02:32:01;5.50;98.70
23560;DHT22;11958;50.836;4.438;2023-12-20T02:34:27;5.60;98.70
23560;DHT22;11958;50.836;4.438;2023-12-20T02:36:53;5.50;98.50
23560;DHT22;11958;50.836;4.438;2023-12-20T02:39:19;5.60;98.80
23560;DHT22;11958;50.836;4.438;2023-12-20T02:41:45;5.70;99.00
23560;DHT22;11958;50.836;4.438;2023-12-20T02:44:11;5.80;98.90
23560;DHT22;11958;50.836;4.438;2023-12-20T02:46:36;5.50;98.90
23560;DHT22;11958;50.836;4.438;2023-12-20T02:49:02;5.60;99.00
23560;DHT22;11958;50.836;4.438;2023-12-20T02:51:28;5.80;98.80
23560;DHT22;11958;50.836;4.438;2023-12-20T02:53:53;5.60;99.00
23560;DHT22;11958;50.836;4.438;2023-12-20T02:56:19;5.70;98.90
23560;DHT22;11958;50.836;4.438;2023-12-20T02:58:45;5.90;98.60
23560;DHT22;11958;50.836;4.438;2023-12-20T03:01:10;5.70;98.50
23560;DHT22;11958;50.836;4.438;2023-12-20T03:03:36;5.60;98.40
23560;DHT22;11958;50.836;4.438;2023-12-20T03:06:02;5.80;98.50
23560;DHT22;11958;50.836;4.438;2023-12-20T03:08:27;5.70;98.80
23560;DHT22;11958;50.836;4.438;2023-12-20T03:10:53;5.60;98.60
23560;DHT22;11958;50.836;4.438;2023-12-20T03:13:19;5.70;98.80
23560;DHT22;11958;50.836;4.438;2023-12-20T03:15:45;5.70;98.70
23560;DHT22;11958;50.836;4.438;2023-12-20T03:18:11;5.80;98.60
23560;DHT22;11958;50.836;4.438;2023-12-20T03:20:37;5.90;98.60
23560;DHT22;11958;50.836;4.438;2023-12-20T03:23:03;5.70;98.40
23560;DHT22;11958;50.836;4.438;2023-12-20T03:25:29;5.90;98.10
23560;DHT22;11958;50.836;4.438;2023-12-20T03:27:55;5.90;98.10
23560;DHT22;11958;50.836;4.438;2023-12-20T03:30:21;5.80;98.50
23560;DHT22;11958;50.836;4.438;2023-12-20T03:32:47;5.80;98.50
23560;DHT22;11958;50.836;4.438;2023-12-20T03:35:13;5.70;98.50
23560;DHT22;11958;50.836;4.438;2023-12-20T03:37:39;5.80;98.50
23560;DHT22;11958;50.836;4.438;2023-12-20T03:40:04;5.70;98.40
23560;DHT22;11958;50.836;4.438;2023-12-20T03:42:30;5.80;98.40
23560;DHT22;11958;50.836;4.438;2023-12-20T03:44:56;5.90;98.50
23560;DHT22;11958;50.836;4.438;2023-12-20T03:47:22;6.00;98.10
23560;DHT22;11958;50.836;4.438;2023-12-20T03:49:47;5.90;97.80
23560;DHT22;11958;50.836;4.438;2023-12-20T03:52:13;5.70;97.50
23560;DHT22;11958;50.836;4.438;2023-12-20T03:54:40;5.80;97.60
23560;DHT22;11958;50.836;4.438;2023-12-20T03:57:08;5.80;97.70
23560;DHT22;11958;50.836;4.438;2023-12-20T03:59:37;5.80;98.00
23560;DHT22;11958;50.836;4.438;2023-12-20T04:02:03;5.90;98.00
23560;DHT22;11958;50.836;4.438;2023-12-20T04:04:29;5.70;97.70
23560;DHT22;11958;50.836;4.438;2023-12-20T04:06:55;5.80;97.40
23560;DHT22;11958;50.836;4.438;2023-12-20T04:09:21;5.90;97.50
23560;DHT22;11958;50.836;4.438;2023-12-20T04:11:46;5.90;97.60
23560;DHT22;11958;50.836;4.438;2023-12-20T04:14:12;6.00;97.00
23560;DHT22;11958;50.836;4.438;2023-12-20T04:16:38;5.90;97.00
23560;DHT22;11958;50.836;4.438;2023-12-20T04:19:04;6.00;97.10
23560;DHT22;11958;50.836;4.438;2023-12-20T04:21:30;6.00;97.10
23560;DHT22;11958;50.836;4.438;2023-12-20T04:23:55;5.90;97.00
23560;DHT22;11958;50.836;4.438;2023-12-20T04:26:21;6.00;97.10
23560;DHT22;11958;50.836;4.438;2023-12-20T04:28:47;5.80;97.20
23560;DHT22;11958;50.836;4.438;2023-12-20T04:31:12;5.80;97.30
23560;DHT22;11958;50.836;4.438;2023-12-20T04:33:38;5.70;97.00
23560;DHT22;11958;50.836;4.438;2023-12-20T04:36:04;5.70;97.10
23560;DHT22;11958;50.836;4.438;2023-12-20T04:38:30;5.70;97.50
23560;DHT22;11958;50.836;4.438;2023-12-20T04:40:56;5.80;97.50
23560;DHT22;11958;50.836;4.438;2023-12-20T04:43:22;5.80;97.00
23560;DHT22;11958;50.836;4.438;2023-12-20T04:45:47;5.70;97.40
23560;DHT22;11958;50.836;4.438;2023-12-20T04:48:15;5.90;97.50
23560;DHT22;11958;50.836;4.438;2023-12-20T04:50:47;5.90;97.60
23560;DHT22;11958;50.836;4.438;2023-12-20T04:55:59;6.00;96.70
23560;DHT22;11958;50.836;4.438;2023-12-20T04:58:25;5.90;96.70
23560;DHT22;11958;50.836;4.438;2023-12-20T05:00:50;5.90;96.60
23560;DHT22;11958;50.836;4.438;2023-12-20T05:03:16;6.00;96.80
23560;DHT22;11958;50.836;4.438;2023-12-20T05:05:42;6.00;96.70
23560;DHT22;11958;50.836;4.438;2023-12-20T05:08:07;6.10;96.40
23560;DHT22;11958;50.836;4.438;2023-12-20T05:10:33;6.10;96.80
23560;DHT22;11958;50.836;4.438;2023-12-20T05:12:59;5.90;96.70
23560;DHT22;11958;50.836;4.438;2023-12-20T05:15:25;5.80;96.70
23560;DHT22;11958;50.836;4.438;2023-12-20T05:17:50;5.80;96.50
23560;DHT22;11958;50.836;4.438;2023-12-20T05:20:16;5.90;96.70
23560;DHT22;11958;50.836;4.438;2023-12-20T05:22:42;5.80;96.80
23560;DHT22;11958;50.836;4.438;2023-12-20T05:25:07;5.90;96.90
23560;DHT22;11958;50.836;4.438;2023-12-20T05:27:33;5.70;96.60
23560;DHT22;11958;50.836;4.438;2023-12-20T05:29:59;5.60;96.70
23560;DHT22;11958;50.836;4.438;2023-12-20T05:32:24;5.50;97.00
23560;DHT22;11958;50.836;4.438;2023-12-20T05:34:50;5.60;97.10
23560;DHT22;11958;50.836;4.438;2023-12-20T05:37:16;5.60;97.20
23560;DHT22;11958;50.836;4.438;2023-12-20T05:39:42;5.50;97.30
23560;DHT22;11958;50.836;4.438;2023-12-20T05:42:07;5.50;97.40
23560;DHT22;11958;50.836;4.438;2023-12-20T05:44:33;5.40;97.60
23560;DHT22;11958;50.836;4.438;2023-12-20T05:46:58;5.50;96.90
23560;DHT22;11958;50.836;4.438;2023-12-20T05:49:24;5.40;97.30
23560;DHT22;11958;50.836;4.438;2023-12-20T05:51:50;5.50;97.30
23560;DHT22;11958;50.836;4.438;2023-12-20T05:54:16;5.50;97.20
23560;DHT22;11958;50.836;4.438;2023-12-20T05:56:42;5.50;96.70
23560;DHT22;11958;50.836;4.438;2023-12-20T05:59:08;5.30;97.30
23560;DHT22;11958;50.836;4.438;2023-12-20T06:01:33;5.20;97.10
23560;DHT22;11958;50.836;4.438;2023-12-20T06:03:59;5.30;97.60
23560;DHT22;11958;50.836;4.438;2023-12-20T06:06:25;5.30;97.50
23560;DHT22;11958;50.836;4.438;2023-12-20T06:08:50;5.30;97.60
23560;DHT22;11958;50.836;4.438;2023-12-20T06:11:16;5.20;97.50
23560;DHT22;11958;50.836;4.438;2023-12-20T06:13:42;5.40;97.50
23560;DHT22;11958;50.836;4.438;2023-12-20T06:16:07;5.30;97.90
23560;DHT22;11958;50.836;4.438;2023-12-20T06:18:33;5.30;97.00
23560;DHT22;11958;50.836;4.438;2023-12-20T06:20:59;5.30;97.40
23560;DHT22;11958;50.836;4.438;2023-12-20T06:23:24;5.30;97.30
23560;DHT22;11958;50.836;4.438;2023-12-20T06:25:50;5.30;97.00
23560;DHT22;11958;50.836;4.438;2023-12-20T06:28:15;5.40;97.50
23560;DHT22;11958;50.836;4.438;2023-12-20T06:30:41;5.40;96.90
23560;DHT22;11958;50.836;4.438;2023-12-20T06:33:07;5.30;96.60
23560;DHT22;11958;50.836;4.438;2023-12-20T06:35:32;5.50;96.90
23560;DHT22;11958;50.836;4.438;2023-12-20T06:37:58;5.40;96.80
23560;DHT22;11958;50.836;4.438;2023-12-20T06:40:24;5.60;96.80
23560;DHT22;11958;50.836;4.438;2023-12-20T06:42:49;5.40;96.20
23560;DHT22;11958;50.836;4.438;2023-12-20T06:45:15;5.60;96.30
23560;DHT22;11958;50.836;4.438;2023-12-20T06:47:41;5.30;95.90
23560;DHT22;11958;50.836;4.438;2023-12-20T06:50:06;5.50;96.50
23560;DHT22;11958;50.836;4.438;2023-12-20T06:52:34;5.30;96.40
23560;DHT22;11958;50.836;4.438;2023-12-20T06:55:00;5.40;95.90
23560;DHT22;11958;50.836;4.438;2023-12-20T06:57:26;5.20;96.30
23560;DHT22;11958;50.836;4.438;2023-12-20T06:59:53;5.20;96.40
23560;DHT22;11958;50.836;4.438;2023-12-20T07:02:18;5.20;96.30
23560;DHT22;11958;50.836;4.438;2023-12-20T07:04:44;5.10;96.50
23560;DHT22;11958;50.836;4.438;2023-12-20T07:07:10;5.10;96.80
23560;DHT22;11958;50.836;4.438;2023-12-20T07:09:38;5.00;96.90
23560;DHT22;11958;50.836;4.438;2023-12-20T07:12:04;5.00;96.90
23560;DHT22;11958;50.836;4.438;2023-12-20T07:14:30;4.90;97.00
23560;DHT22;11958;50.836;4.438;2023-12-20T07:16:56;4.90;97.10
23560;DHT22;11958;50.836;4.438;2023-12-20T07:19:22;5.00;97.30
23560;DHT22;11958;50.836;4.438;2023-12-20T07:21:48;5.00;97.40
23560;DHT22;11958;50.836;4.438;2023-12-20T07:24:13;5.10;97.40
23560;DHT22;11958;50.836;4.438;2023-12-20T07:26:39;5.10;96.90
23560;DHT22;11958;50.836;4.438;2023-12-20T07:29:05;5.10;96.70
23560;DHT22;11958;50.836;4.438;2023-12-20T07:31:42;5.10;96.60
23560;DHT22;11958;50.836;4.438;2023-12-20T07:34:08;5.10;96.80
23560;DHT22;11958;50.836;4.438;2023-12-20T07:36:33;4.80;97.20
23560;DHT22;11958;50.836;4.438;2023-12-20T07:38:59;5.00;96.90
23560;DHT22;11958;50.836;4.438;2023-12-20T07:41:25;5.00;97.10
23560;DHT22;11958;50.836;4.438;2023-12-20T07:43:50;4.70;97.20
23560;DHT22;11958;50.836;4.438;2023-12-20T07:46:16;4.90;97.00
23560;DHT22;11958;50.836;4.438;2023-12-20T07:48:43;5.00;97.10
23560;DHT22;11958;50.836;4.438;2023-12-20T07:51:09;4.90;97.20
23560;DHT22;11958;50.836;4.438;2023-12-20T07:53:35;4.80;96.90
23560;DHT22;11958;50.836;4.438;2023-12-20T07:56:01;5.00;96.60
23560;DHT22;11958;50.836;4.438;2023-12-20T07:58:26;4.90;96.60
23560;DHT22;11958;50.836;4.438;2023-12-20T08:00:52;5.00;96.70
23560;DHT22;11958;50.836;4.438;2023-12-20T08:03:18;5.10;96.70
23560;DHT22;11958;50.836;4.438;2023-12-20T08:05:43;5.00;96.60
23560;DHT22;11958;50.836;4.438;2023-12-20T08:08:09;4.80;96.70
23560;DHT22;11958;50.836;4.438;2023-12-20T08:10:35;4.90;96.80
23560;DHT22;11958;50.836;4.438;2023-12-20T08:13:01;5.10;96.40
23560;DHT22;11958;50.836;4.438;2023-12-20T08:15:26;5.10;96.60
23560;DHT22;11958;50.836;4.438;2023-12-20T08:17:52;5.10;96.50
23560;DHT22;11958;50.836;4.438;2023-12-20T08:20:18;5.00;96.50
23560;DHT22;11958;50.836;4.438;2023-12-20T08:22:44;5.00;96.20
23560;DHT22;11958;50.836;4.438;2023-12-20T08:25:09;4.80;96.40
23560;DHT22;11958;50.836;4.438;2023-12-20T08:27:41;5.10;96.80
23560;DHT22;11958;50.836;4.438;2023-12-20T08:30:08;5.00;96.80
23560;DHT22;11958;50.836;4.438;2023-12-20T08:32:34;5.10;96.80
23560;DHT22;11958;50.836;4.438;2023-12-20T08:35:00;5.10;96.50
23560;DHT22;11958;50.836;4.438;2023-12-20T08:37:35;5.10;96.40
23560;DHT22;11958;50.836;4.438;2023-12-20T08:40:01;5.10;96.20
23560;DHT22;11958;50.836;4.438;2023-12-20T08:43:00;5.20;96.10
23560;DHT22;11958;50.836;4.438;2023-12-20T10:42:12;7.30;90.20
23560;DHT22;11958;50.836;4.438;2023-12-20T10:44:43;7.00;90.40
23560;DHT22;11958;50.836;4.438;2023-12-20T10:47:11;7.30;90.80
23560;DHT22;11958;50.836;4.438;2023-12-20T10:50:03;7.00;90.70
23560;DHT22;11958;50.836;4.438;2023-12-20T10:52:28;7.20;90.50
23560;DHT22;11958;50.836;4.438;2023-12-20T10:54:54;7.20;90.40
23560;DHT22;11958;50.836;4.438;2023-12-20T10:57:21;7.40;91.20
23560;DHT22;11958;50.836;4.438;2023-12-20T10:59:49;7.60;91.50
23560;DHT22;11958;50.836;4.438;2023-12-20T11:02:28;7.60;90.10
23560;DHT22;11958;50.836;4.438;2023-12-20T11:05:23;7.60;90.80
23560;DHT22;11958;50.836;4.438;2023-12-20T11:11:06;7.50;90.20
23560;DHT22;11958;50.836;4.438;2023-12-20T11:14:08;7.50;89.90
23560;DHT22;11958;50.836;4.438;2023-12-20T11:16:41;7.70;89.90
23560;DHT22;11958;50.836;4.438;2023-12-20T11:22:51;7.60;90.60
23560;DHT22;11958;50.836;4.438;2023-12-20T11:25:10;7.70;89.90
23560;DHT22;11958;50.836;4.438;2023-12-20T11:28:13;7.70;91.00
23560;DHT22;11958;50.836;4.438;2023-12-20T11:30:57;7.70;90.80
23560;DHT22;11958;50.836;4.438;2023-12-20T11:34:13;7.60;92.40
23560;DHT22;11958;50.836;4.438;2023-12-20T11:36:48;7.70;92.60
23560;DHT22;11958;50.836;4.438;2023-12-20T11:39:21;7.60;92.80
23560;DHT22;11958;50.836;4.438;2023-12-20T11:41:46;7.40;93.20
23560;DHT22;11958;50.836;4.438;2023-12-20T11:44:17;7.50;94.90
23560;DHT22;11958;50.836;4.438;2023-12-20T11:47:14;7.50;95.10
23560;DHT22;11958;50.836;4.438;2023-12-20T11:49:41;7.60;94.50
23560;DHT22;11958;50.836;4.438;2023-12-20T11:55:30;7.70;94.90
23560;DHT22;11958;50.836;4.438;2023-12-20T11:58:04;7.60;94.10
23560;DHT22;11958;50.836;4.438;2023-12-20T12:14:00;7.60;94.60
23560;DHT22;11958;50.836;4.438;2023-12-20T12:16:48;7.80;93.60
23560;DHT22;11958;50.836;4.438;2023-12-20T12:19:27;7.60;93.60
23560;DHT22;11958;50.836;4.438;2023-12-20T13:00:24;8.00;93.40
23560;DHT22;11958;50.836;4.438;2023-12-20T13:03:20;8.00;93.70
23560;DHT22;11958;50.836;4.438;2023-12-20T13:05:46;8.20;93.90
23560;DHT22;11958;50.836;4.438;2023-12-20T15:04:58;8.80;92.60
23560;DHT22;11958;50.836;4.438;2023-12-20T15:07:24;8.90;92.00
23560;DHT22;11958;50.836;4.438;2023-12-20T15:09:49;8.90;91.70
23560;DHT22;11958;50.836;4.438;2023-12-20T15:12:15;9.00;92.10
23560;DHT22;11958;50.836;4.438;2023-12-20T15:14:41;9.00;91.70
23560;DHT22;11958;50.836;4.438;2023-12-20T15:17:06;8.90;91.90
23560;DHT22;11958;50.836;4.438;2023-12-20T15:19:32;8.90;92.30
23560;DHT22;11958;50.836;4.438;2023-12-20T15:21:58;8.90;92.70
23560;DHT22;11958;50.836;4.438;2023-12-20T15:24:25;9.00;92.00
23560;DHT22;11958;50.836;4.438;2023-12-20T15:27:02;9.00;91.80
23560;DHT22;11958;50.836;4.438;2023-12-20T15:29:28;9.00;91.70
23560;DHT22;11958;50.836;4.438;2023-12-20T15:31:54;9.00;92.00
23560;DHT22;11958;50.836;4.438;2023-12-20T15:34:20;9.00;91.70
23560;DHT22;11958;50.836;4.438;2023-12-20T15:36:45;9.00;91.70
23560;DHT22;11958;50.836;4.438;2023-12-20T15:39:11;9.00;92.20
23560;DHT22;11958;50.836;4.438;2023-12-20T15:41:39;8.90;92.50
23560;DHT22;11958;50.836;4.438;2023-12-20T15:44:26;8.90;92.30
23560;DHT22;11958;50.836;4.438;2023-12-20T15:46:57;9.00;92.60
23560;DHT22;11958;50.836;4.438;2023-12-20T15:49:43;9.00;92.30
23560;DHT22;11958;50.836;4.438;2023-12-20T15:52:18;9.00;92.40
23560;DHT22;11958;50.836;4.438;2023-12-20T15:55:02;8.90;92.20
23560;DHT22;11958;50.836;4.438;2023-12-20T15:57:28;8.90;92.50
23560;DHT22;11958;50.836;4.438;2023-12-20T15:59:56;9.10;91.80
23560;DHT22;11958;50.836;4.438;2023-12-20T16:02:44;9.20;91.80
23560;DHT22;11958;50.836;4.438;2023-12-20T16:05:10;9.10;92.00
23560;DHT22;11958;50.836;4.438;2023-12-20T16:07:37;9.10;91.80
23560;DHT22;11958;50.836;4.438;2023-12-20T16:10:06;9.10;92.20
23560;DHT22;11958;50.836;4.438;2023-12-20T16:12:35;9.10;91.60
23560;DHT22;11958;50.836;4.438;2023-12-20T16:15:18;9.00;91.80
23560;DHT22;11958;50.836;4.438;2023-12-20T16:17:44;9.00;92.20
23560;DHT22;11958;50.836;4.438;2023-12-20T16:20:10;9.00;92.00
23560;DHT22;11958;50.836;4.438;2023-12-20T16:22:39;9.00;91.90
23560;DHT22;11958;50.836;4.438;2023-12-20T16:25:06;9.00;92.20
23560;DHT22;11958;50.836;4.438;2023-12-20T16:27:32;9.00;92.50
23560;DHT22;11958;50.836;4.438;2023-12-20T16:30:25;9.00;92.80
23560;DHT22;11958;50.836;4.438;2023-12-20T16:32:50;8.90;92.40
23560;DHT22;11958;50.836;4.438;2023-12-20T16:35:17;9.00;92.50
23560;DHT22;11958;50.836;4.438;2023-12-20T16:37:52;8.90;92.80
23560;DHT22;11958;50.836;4.438;2023-12-20T16:40:22;9.00;92.70
23560;DHT22;11958;50.836;4.438;2023-12-20T16:42:53;8.90;93.00
23560;DHT22;11958;50.836;4.438;2023-12-20T16:45:23;9.00;92.90
23560;DHT22;11958;50.836;4.438;2023-12-20T16:47:49;9.00;93.10
23560;DHT22;11958;50.836;4.438;2023-12-20T16:50:25;9.00;93.50
23560;DHT22;11958;50.836;4.438;2023-12-20T16:52:50;8.90;93.80
23560;DHT22;11958;50.836;4.438;2023-12-20T16:55:18;9.00;93.60
23560;DHT22;11958;50.836;4.438;2023-12-20T16:57:43;8.90;94.00
23560;DHT22;11958;50.836;4.438;2023-12-20T17:00:12;8.80;94.10
23560;DHT22;11958;50.836;4.438;2023-12-20T17:02:38;9.00;94.10
23560;DHT22;11958;50.836;4.438;2023-12-20T17:05:04;8.90;94.20
23560;DHT22;11958;50.836;4.438;2023-12-20T17:07:38;8.90;94.30
23560;DHT22;11958;50.836;4.438;2023-12-20T17:10:06;8.90;94.60
23560;DHT22;11958;50.836;4.438;2023-12-20T17:12:51;8.90;94.70
23560;DHT22;11958;50.836;4.438;2023-12-20T17:15:23;8.90;95.00
23560;DHT22;11958;50.836;4.438;2023-12-20T17:18:15;8.90;95.10
23560;DHT22;11958;50.836;4.438;2023-12-20T17:25:22;8.90;95.90
23560;DHT22;11958;50.836;4.438;2023-12-20T17:41:12;8.80;96.20
23560;DHT22;11958;50.836;4.438;2023-12-20T17:43:41;8.80;96.00
23560;DHT22;11958;50.836;4.438;2023-12-20T17:46:07;8.90;95.60
23560;DHT22;11958;50.836;4.438;2023-12-20T17:48:36;8.80;95.80
23560;DHT22;11958;50.836;4.438;2023-12-20T17:51:02;8.80;95.20
23560;DHT22;11958;50.836;4.438;2023-12-20T17:53:28;8.90;95.50
23560;DHT22;11958;50.836;4.438;2023-12-20T17:55:53;8.90;94.90
23560;DHT22;11958;50.836;4.438;2023-12-20T17:58:19;8.90;94.70
23560;DHT22;11958;50.836;4.438;2023-12-20T18:00:57;9.00;94.80
23560;DHT22;11958;50.836;4.438;2023-12-20T18:03:23;9.00;94.60
23560;DHT22;11958;50.836;4.438;2023-12-20T18:06:16;9.00;94.50
23560;DHT22;11958;50.836;4.438;2023-12-20T18:08:45;9.00;94.60
23560;DHT22;11958;50.836;4.438;2023-12-20T18:11:58;8.90;94.50
23560;DHT22;11958;50.836;4.438;2023-12-20T18:20:16;8.80;94.50
23560;DHT22;11958;50.836;4.438;2023-12-20T18:22:54;9.00;94.40
23560;DHT22;11958;50.836;4.438;2023-12-20T18:53:28;8.90;94.40
23560;DHT22;11958;50.836;4.438;2023-12-20T18:59:35;8.90;94.20
23560;DHT22;11958;50.836;4.438;2023-12-20T19:26:56;9.00;94.20
23560;DHT22;11958;50.836;4.438;2023-12-20T19:30:11;9.00;94.30
23560;DHT22;11958;50.836;4.438;2023-12-20T19:32:37;9.00;94.40
23560;DHT22;11958;50.836;4.438;2023-12-20T19:35:03;9.20;94.20
23560;DHT22;11958;50.836;4.438;2023-12-20T19:37:29;9.10;93.90
23560;DHT22;11958;50.836;4.438;2023-12-20T19:39:55;9.10;94.20
23560;DHT22;11958;50.836;4.438;2023-12-20T19:42:21;9.10;94.20
23560;DHT22;11958;50.836;4.438;2023-12-20T19:44:54;9.10;93.90
23560;DHT22;11958;50.836;4.438;2023-12-20T19:47:22;9.20;94.20
23560;DHT22;11958;50.836;4.438;2023-12-20T19:49:48;9.20;94.00
23560;DHT22;11958;50.836;4.438;2023-12-20T19:52:13;9.20;93.80
23560;DHT22;11958;50.836;4.438;2023-12-20T19:54:39;9.20;94.10
23560;DHT22;11958;50.836;4.438;2023-12-20T19:57:04;9.30;94.40
23560;DHT22;11958;50.836;4.438;2023-12-20T19:59:30;9.20;94.00
23560;DHT22;11958;50.836;4.438;2023-12-20T20:01:56;9.20;93.90
23560;DHT22;11958;50.836;4.438;2023-12-20T20:04:21;9.20;94.20
23560;DHT22;11958;50.836;4.438;2023-12-20T20:06:48;9.20;94.60
23560;DHT22;11958;50.836;4.438;2023-12-20T20:09:16;9.10;94.60
23560;DHT22;11958;50.836;4.438;2023-12-20T20:11:41;9.10;94.80
23560;DHT22;11958;50.836;4.438;2023-12-20T20:14:07;9.20;94.80
23560;DHT22;11958;50.836;4.438;2023-12-20T20:16:33;9.20;95.00
23560;DHT22;11958;50.836;4.438;2023-12-20T20:18:58;9.30;94.70
23560;DHT22;11958;50.836;4.438;2023-12-20T20:21:24;9.20;94.70
23560;DHT22;11958;50.836;4.438;2023-12-20T20:23:50;9.20;94.30
23560;DHT22;11958;50.836;4.438;2023-12-20T20:26:15;9.30;94.20
23560;DHT22;11958;50.836;4.438;2023-12-20T20:28:41;9.30;94.40
23560;DHT22;11958;50.836;4.438;2023-12-20T20:31:07;9.40;94.40
23560;DHT22;11958;50.836;4.438;2023-12-20T20:33:33;9.30;94.50
23560;DHT22;11958;50.836;4.438;2023-12-20T20:35:59;9.30;94.80
23560;DHT22;11958;50.836;4.438;2023-12-20T20:38:25;9.20;94.80
23560;DHT22;11958;50.836;4.438;2023-12-20T20:40:51;9.20;95.30
23560;DHT22;11958;50.836;4.438;2023-12-20T20:43:18;9.30;94.80
23560;DHT22;11958;50.836;4.438;2023-12-20T20:45:43;9.30;95.10
23560;DHT22;11958;50.836;4.438;2023-12-20T20:48:35;9.40;94.60
23560;DHT22;11958;50.836;4.438;2023-12-20T20:51:04;9.30;95.00
23560;DHT22;11958;50.836;4.438;2023-12-20T20:53:32;9.30;95.00
23560;DHT22;11958;50.836;4.438;2023-12-20T20:56:07;9.30;95.00
23560;DHT22;11958;50.836;4.438;2023-12-20T20:58:32;9.30;95.00
23560;DHT22;11958;50.836;4.438;2023-12-20T21:00:59;9.40;95.00
23560;DHT22;11958;50.836;4.438;2023-12-20T21:03:27;9.40;95.10
23560;DHT22;11958;50.836;4.438;2023-12-20T21:05:53;9.50;95.10
23560;DHT22;11958;50.836;4.438;2023-12-20T21:28:40;9.40;96.70
23560;DHT22;11958;50.836;4.438;2023-12-20T22:44:00;9.50;98.50
23560;DHT22;11958;50.836;4.438;2023-12-20T22:46:28;9.60;98.30
23560;DHT22;11958;50.836;4.438;2023-12-20T22:48:56;9.50;98.50
23560;DHT22;11958;50.836;4.438;2023-12-20T22:51:22;9.60;98.40
23560;DHT22;11958;50.836;4.438;2023-12-20T22:54:05;9.80;98.40
23560;DHT22;11958;50.836;4.438;2023-12-20T22:56:43;9.70;97.60
23560;DHT22;11958;50.836;4.438;2023-12-20T22:59:31;9.70;97.80
23560;DHT22;11958;50.836;4.438;2023-12-20T23:01:57;9.90;96.90
23560;DHT22;11958;50.836;4.438;2023-12-20T23:04:32;9.80;96.70
23560;DHT22;11958;50.836;4.438;2023-12-20T23:07:33;9.70;97.00
23560;DHT22;11958;50.836;4.438;2023-12-20T23:10:19;9.80;96.50
23560;DHT22;11958;50.836;4.438;2023-12-20T23:13:07;10.10;96.40
23560;DHT22;11958;50.836;4.438;2023-12-20T23:15:33;9.80;96.30
23560;DHT22;11958;50.836;4.438;2023-12-20T23:17:59;9.70;96.20
23560;DHT22;11958;50.836;4.438;2023-12-20T23:20:25;9.70;96.50
23560;DHT22;11958;50.836;4.438;2023-12-20T23:22:51;9.80;96.30
23560;DHT22;11958;50.836;4.438;2023-12-20T23:25:17;9.80;96.40
23560;DHT22;11958;50.836;4.438;2023-12-20T23:27:43;9.60;96.50
23560;DHT22;11958;50.836;4.438;2023-12-20T23:30:12;9.70;96.50
23560;DHT22;11958;50.836;4.438;2023-12-20T23:32:38;9.80;96.60
23560;DHT22;11958;50.836;4.438;2023-12-20T23:35:29;9.70;96.80
23560;DHT22;11958;50.836;4.438;2023-12-20T23:37:55;9.70;96.60
23560;DHT22;11958;50.836;4.438;2023-12-20T23:40:21;9.70;96.50
23560;DHT22;11958;50.836;4.438;2023-12-20T23:42:46;9.80;96.20
23560;DHT22;11958;50.836;4.438;2023-12-20T23:45:12;9.70;96.30